Weather at Dallas Fort Worth International Airport

Public forecast

Using degrees Fahrenheit for public forecast. Weather courtesy of forecast.io.

Current aviation weather report (METAR) for Dallas Fort Worth International Airport

Retrieved 2021/04/20 21:53 UTC (29 minutes ago):

KDFW 202153Z 36016G26KT 10SM SCT040 16/02 A3012 RMK AO2 PK WND 34026/2148 SLP197 T01560017

Aviation forecast (TAF) for Dallas Fort Worth International Airport

Retrieved 2021/04/20 18:30 UTC (4 hours ago):

TAF KDFW 201728Z 2018/2124 34017G27KT P6SM FEW040 FM210300 02012KT P6SM SKC FM211100 02006KT P6SM FEW250